sensor_id;sensor_type;location;lat;lon;timestamp;pressure;altitude;pressure_sealevel;temperature;humidity
55217;BME280;41086;46.736;15.666;2023-04-01T00:01:15;97144.19;;;7.96;100.00
55217;BME280;41086;46.736;15.666;2023-04-01T00:03:44;97144.56;;;7.91;100.00
55217;BME280;41086;46.736;15.666;2023-04-01T00:06:13;97132.59;;;7.87;100.00
55217;BME280;41086;46.736;15.666;2023-04-01T00:08:41;97133.78;;;7.83;100.00
55217;BME280;41086;46.736;15.666;2023-04-01T00:11:08;97139.53;;;7.77;100.00
55217;BME280;41086;46.736;15.666;2023-04-01T00:13:34;97130.41;;;7.81;100.00
55217;BME280;41086;46.736;15.666;2023-04-01T00:16:02;97127.53;;;7.84;100.00
55217;BME280;41086;46.736;15.666;2023-04-01T00:18:46;97133.53;;;7.86;100.00
55217;BME280;41086;46.736;15.666;2023-04-01T00:21:17;97133.41;;;7.88;100.00
55217;BME280;41086;46.736;15.666;2023-04-01T00:23:44;97128.13;;;7.88;100.00
55217;BME280;41086;46.736;15.666;2023-04-01T00:26:11;97128.97;;;7.88;100.00
55217;BME280;41086;46.736;15.666;2023-04-01T00:28:39;97130.63;;;7.89;100.00
55217;BME280;41086;46.736;15.666;2023-04-01T00:31:07;97119.16;;;7.90;100.00
55217;BME280;41086;46.736;15.666;2023-04-01T00:33:34;97129.56;;;7.92;100.00
55217;BME280;41086;46.736;15.666;2023-04-01T00:36:09;97121.91;;;7.89;100.00
55217;BME280;41086;46.736;15.666;2023-04-01T00:38:37;97131.50;;;7.90;100.00
55217;BME280;41086;46.736;15.666;2023-04-01T00:41:05;97140.25;;;7.90;100.00
55217;BME280;41086;46.736;15.666;2023-04-01T00:43:33;97120.94;;;7.78;100.00
55217;BME280;41086;46.736;15.666;2023-04-01T00:46:00;97121.66;;;7.81;100.00
55217;BME280;41086;46.736;15.666;2023-04-01T00:48:30;97122.38;;;7.83;100.00
55217;BME280;41086;46.736;15.666;2023-04-01T00:51:03;97122.38;;;7.83;100.00
55217;BME280;41086;46.736;15.666;2023-04-01T00:53:33;97127.06;;;7.79;100.00
55217;BME280;41086;46.736;15.666;2023-04-01T00:56:05;97119.53;;;7.74;100.00
55217;BME280;41086;46.736;15.666;2023-04-01T00:58:38;97119.53;;;7.74;100.00
55217;BME280;41086;46.736;15.666;2023-04-01T01:01:06;97119.53;;;7.74;100.00
55217;BME280;41086;46.736;15.666;2023-04-01T01:03:34;97114.50;;;7.71;100.00
55217;BME280;41086;46.736;15.666;2023-04-01T01:06:19;97106.34;;;7.63;100.00
55217;BME280;41086;46.736;15.666;2023-04-01T01:09:09;97097.13;;;7.58;100.00
55217;BME280;41086;46.736;15.666;2023-04-01T01:11:50;97093.75;;;7.55;100.00
55217;BME280;41086;46.736;15.666;2023-04-01T01:31:21;97068.09;;;7.13;100.00
55217;BME280;41086;46.736;15.666;2023-04-01T01:36:29;97040.19;;;7.10;100.00
55217;BME280;41086;46.736;15.666;2023-04-01T01:38:58;97032.19;;;7.12;100.00
55217;BME280;41086;46.736;15.666;2023-04-01T01:41:26;97025.84;;;7.14;100.00
55217;BME280;41086;46.736;15.666;2023-04-01T01:43:56;97018.63;;;7.16;100.00
55217;BME280;41086;46.736;15.666;2023-04-01T01:46:26;97026.53;;;7.16;100.00
55217;BME280;41086;46.736;15.666;2023-04-01T01:48:55;97020.81;;;7.22;100.00
55217;BME280;41086;46.736;15.666;2023-04-01T01:51:22;97024.75;;;7.28;100.00
55217;BME280;41086;46.736;15.666;2023-04-01T01:53:49;97034.22;;;7.30;100.00
55217;BME280;41086;46.736;15.666;2023-04-01T01:56:22;97034.31;;;7.29;100.00
55217;BME280;41086;46.736;15.666;2023-04-01T01:58:56;97040.44;;;7.29;100.00
55217;BME280;41086;46.736;15.666;2023-04-01T02:01:28;97033.34;;;7.30;100.00
55217;BME280;41086;46.736;15.666;2023-04-01T02:04:03;97027.97;;;7.31;100.00
55217;BME280;41086;46.736;15.666;2023-04-01T02:06:34;97028.81;;;7.32;100.00
55217;BME280;41086;46.736;15.666;2023-04-01T02:09:06;97038.28;;;7.35;100.00
55217;BME280;41086;46.736;15.666;2023-04-01T02:11:50;97030.25;;;7.36;100.00
55217;BME280;41086;46.736;15.666;2023-04-01T02:14:29;97020.81;;;7.33;100.00
55217;BME280;41086;46.736;15.666;2023-04-01T02:17:02;97034.31;;;7.29;100.00
55217;BME280;41086;46.736;15.666;2023-04-01T02:19:35;97041.25;;;7.19;100.00
55217;BME280;41086;46.736;15.666;2023-04-01T02:22:04;97053.50;;;7.08;100.00
55217;BME280;41086;46.736;15.666;2023-04-01T02:24:35;97054.19;;;6.99;100.00
55217;BME280;41086;46.736;15.666;2023-04-01T02:27:05;97062.09;;;6.99;100.00
55217;BME280;41086;46.736;15.666;2023-04-01T02:29:32;97064.38;;;6.93;100.00
55217;BME280;41086;46.736;15.666;2023-04-01T02:31:59;97058.97;;;6.94;100.00
55217;BME280;41086;46.736;15.666;2023-04-01T02:34:27;97064.22;;;6.94;100.00
55217;BME280;41086;46.736;15.666;2023-04-01T02:36:54;97065.19;;;6.93;100.00
55217;BME280;41086;46.736;15.666;2023-04-01T02:39:22;97062.41;;;6.83;100.00
55217;BME280;41086;46.736;15.666;2023-04-01T02:41:49;97067.69;;;6.83;100.00
55217;BME280;41086;46.736;15.666;2023-04-01T02:44:15;97071.16;;;6.84;100.00
55217;BME280;41086;46.736;15.666;2023-04-01T02:46:43;97070.31;;;6.83;100.00
55217;BME280;41086;46.736;15.666;2023-04-01T02:49:10;97068.41;;;6.85;100.00
55217;BME280;41086;46.736;15.666;2023-04-01T02:51:37;97055.00;;;6.88;100.00
55217;BME280;41086;46.736;15.666;2023-04-01T02:54:04;97045.09;;;6.92;100.00
55217;BME280;41086;46.736;15.666;2023-04-01T02:56:30;97044.22;;;6.92;100.00
55217;BME280;41086;46.736;15.666;2023-04-01T02:58:57;97034.19;;;6.85;100.00
55217;BME280;41086;46.736;15.666;2023-04-01T03:01:24;97042.06;;;6.85;100.00
55217;BME280;41086;46.736;15.666;2023-04-01T03:03:51;97047.44;;;6.73;100.00
55217;BME280;41086;46.736;15.666;2023-04-01T03:06:18;97050.53;;;6.66;100.00
55217;BME280;41086;46.736;15.666;2023-04-01T03:08:45;97048.38;;;6.60;100.00
55217;BME280;41086;46.736;15.666;2023-04-01T03:11:13;97053.47;;;6.51;100.00
55217;BME280;41086;46.736;15.666;2023-04-01T03:13:40;97054.63;;;6.35;100.00
55217;BME280;41086;46.736;15.666;2023-04-01T03:16:08;97044.22;;;6.34;100.00
55217;BME280;41086;46.736;15.666;2023-04-01T03:18:35;97040.75;;;6.33;100.00
55217;BME280;41086;46.736;15.666;2023-04-01T03:21:19;97045.44;;;6.41;100.00
55217;BME280;41086;46.736;15.666;2023-04-01T03:23:47;97043.66;;;6.41;100.00
55217;BME280;41086;46.736;15.666;2023-04-01T03:26:13;97055.19;;;6.28;100.00
55217;BME280;41086;46.736;15.666;2023-04-01T03:28:41;97079.16;;;6.12;100.00
55217;BME280;41086;46.736;15.666;2023-04-01T03:31:08;97075.06;;;6.08;100.00
55217;BME280;41086;46.736;15.666;2023-04-01T03:33:42;97072.31;;;6.09;100.00
55217;BME280;41086;46.736;15.666;2023-04-01T03:36:09;97075.56;;;6.13;100.00
55217;BME280;41086;46.736;15.666;2023-04-01T03:38:40;97067.56;;;6.14;100.00
55217;BME280;41086;46.736;15.666;2023-04-01T03:41:07;97067.81;;;6.11;100.00
55217;BME280;41086;46.736;15.666;2023-04-01T03:43:37;97063.38;;;6.12;100.00
55217;BME280;41086;46.736;15.666;2023-04-01T03:46:04;97064.09;;;6.14;100.00
55217;BME280;41086;46.736;15.666;2023-04-01T03:48:31;97059.78;;;6.13;100.00
55217;BME280;41086;46.736;15.666;2023-04-01T03:50:58;97064.63;;;6.19;100.00
55217;BME280;41086;46.736;15.666;2023-04-01T03:53:25;97049.94;;;6.28;100.00
55217;BME280;41086;46.736;15.666;2023-04-01T03:55:56;97045.03;;;6.34;100.00
55217;BME280;41086;46.736;15.666;2023-04-01T03:58:24;97037.97;;;6.35;100.00
55217;BME280;41086;46.736;15.666;2023-04-01T04:00:52;97033.13;;;6.41;100.00
55217;BME280;41086;46.736;15.666;2023-04-01T04:03:19;97047.31;;;6.28;100.00
55217;BME280;41086;46.736;15.666;2023-04-01T04:05:47;97056.88;;;6.29;100.00
55217;BME280;41086;46.736;15.666;2023-04-01T04:08:16;97058.66;;;6.28;100.00
55217;BME280;41086;46.736;15.666;2023-04-01T04:10:44;97032.84;;;6.33;100.00
55217;BME280;41086;46.736;15.666;2023-04-01T04:13:11;97030.03;;;6.48;100.00
55217;BME280;41086;46.736;15.666;2023-04-01T04:15:44;97028.84;;;6.52;100.00
55217;BME280;41086;46.736;15.666;2023-04-01T04:18:11;97035.19;;;6.49;100.00
55217;BME280;41086;46.736;15.666;2023-04-01T04:20:46;97046.09;;;6.32;100.00
55217;BME280;41086;46.736;15.666;2023-04-01T04:23:17;97045.59;;;6.27;100.00
55217;BME280;41086;46.736;15.666;2023-04-01T04:26:02;97049.66;;;6.19;100.00
55217;BME280;41086;46.736;15.666;2023-04-01T04:28:30;97039.47;;;6.15;100.00
55217;BME280;41086;46.736;15.666;2023-04-01T04:30:58;97037.56;;;6.17;100.00
55217;BME280;41086;46.736;15.666;2023-04-01T04:33:26;97033.53;;;6.24;100.00
55217;BME280;41086;46.736;15.666;2023-04-01T04:35:57;97037.50;;;6.30;100.00
55217;BME280;41086;46.736;15.666;2023-04-01T04:38:25;97032.03;;;6.33;100.00
55217;BME280;41086;46.736;15.666;2023-04-01T04:40:53;97024.72;;;6.36;100.00
55217;BME280;41086;46.736;15.666;2023-04-01T04:43:20;97036.00;;;6.38;100.00
55217;BME280;41086;46.736;15.666;2023-04-01T04:45:48;97023.06;;;6.35;100.00
55217;BME280;41086;46.736;15.666;2023-04-01T04:48:16;97047.31;;;6.28;100.00
55217;BME280;41086;46.736;15.666;2023-04-01T04:50:50;97046.81;;;6.22;100.00
55217;BME280;41086;46.736;15.666;2023-04-01T04:53:20;97051.47;;;6.19;100.00
55217;BME280;41086;46.736;15.666;2023-04-01T04:55:48;97049.31;;;6.24;100.00
55217;BME280;41086;46.736;15.666;2023-04-01T04:58:37;97056.63;;;6.32;100.00
55217;BME280;41086;46.736;15.666;2023-04-01T05:01:13;97057.13;;;6.37;100.00
55217;BME280;41086;46.736;15.666;2023-04-01T05:03:41;97061.66;;;6.35;100.00
55217;BME280;41086;46.736;15.666;2023-04-01T05:06:09;97066.88;;;6.24;100.00
55217;BME280;41086;46.736;15.666;2023-04-01T05:08:37;97064.16;;;6.25;100.00
55217;BME280;41086;46.736;15.666;2023-04-01T05:11:16;97064.75;;;6.29;100.00
55217;BME280;41086;46.736;15.666;2023-04-01T05:13:45;97051.72;;;6.27;100.00
55217;BME280;41086;46.736;15.666;2023-04-01T05:16:15;97061.91;;;6.32;100.00
55217;BME280;41086;46.736;15.666;2023-04-01T05:18:42;97069.56;;;6.35;100.00
55217;BME280;41086;46.736;15.666;2023-04-01T05:21:10;97059.53;;;6.40;100.00
55217;BME280;41086;46.736;15.666;2023-04-01T05:23:38;97058.47;;;6.42;100.00
55217;BME280;41086;46.736;15.666;2023-04-01T05:26:08;97073.19;;;6.45;100.00
55217;BME280;41086;46.736;15.666;2023-04-01T05:28:35;97067.09;;;6.44;100.00
55217;BME280;41086;46.736;15.666;2023-04-01T05:31:05;97080.03;;;6.48;100.00
55217;BME280;41086;46.736;15.666;2023-04-01T05:33:40;97078.72;;;6.53;100.00
55217;BME280;41086;46.736;15.666;2023-04-01T05:36:14;97080.91;;;6.59;100.00
55217;BME280;41086;46.736;15.666;2023-04-01T05:38:42;97074.22;;;6.66;100.00
55217;BME280;41086;46.736;15.666;2023-04-01T05:41:11;97079.16;;;6.71;100.00
55217;BME280;41086;46.736;15.666;2023-04-01T05:43:42;97073.66;;;6.74;100.00
55217;BME280;41086;46.736;15.666;2023-04-01T05:46:30;97082.31;;;6.87;100.00
55217;BME280;41086;46.736;15.666;2023-04-01T05:49:17;97075.84;;;7.03;100.00
55217;BME280;41086;46.736;15.666;2023-04-01T05:51:44;97076.59;;;7.05;100.00
55217;BME280;41086;46.736;15.666;2023-04-01T05:54:11;97092.88;;;7.21;100.00
55217;BME280;41086;46.736;15.666;2023-04-01T05:56:38;97086.31;;;7.38;100.00
55217;BME280;41086;46.736;15.666;2023-04-01T05:59:05;97097.81;;;7.48;100.00
55217;BME280;41086;46.736;15.666;2023-04-01T06:01:32;97097.81;;;7.48;100.00
55217;BME280;41086;46.736;15.666;2023-04-01T06:03:59;97097.81;;;7.48;100.00
55217;BME280;41086;46.736;15.666;2023-04-01T06:06:27;97097.81;;;7.48;100.00
55217;BME280;41086;46.736;15.666;2023-04-01T06:09:18;97097.81;;;7.48;100.00
55217;BME280;41086;46.736;15.666;2023-04-01T06:12:06;97097.81;;;7.48;100.00
55217;BME280;41086;46.736;15.666;2023-04-01T06:22:57;56955.81;;;-143.57;100.00
55217;BME280;41086;46.736;15.666;2023-04-01T06:26:41;56955.81;;;-143.57;100.00
55217;BME280;41086;46.736;15.666;2023-04-01T06:45:30;56955.81;;;-143.57;100.00
55217;BME280;41086;46.736;15.666;2023-04-01T06:57:44;56955.81;;;-143.57;100.00
55217;BME280;41086;46.736;15.666;2023-04-01T07:01:04;56955.81;;;-143.57;100.00
55217;BME280;41086;46.736;15.666;2023-04-01T07:03:44;56955.81;;;-143.57;nan
55217;BME280;41086;46.736;15.666;2023-04-01T07:08:59;97097.81;;;-143.57;100.00
55217;BME280;41086;46.736;15.666;2023-04-01T07:11:50;97243.19;;;9.64;100.00
55217;BME280;41086;46.736;15.666;2023-04-01T07:14:41;97255.31;;;9.46;100.00
55217;BME280;41086;46.736;15.666;2023-04-01T07:17:17;97248.84;;;9.39;100.00
55217;BME280;41086;46.736;15.666;2023-04-01T07:22:32;97275.94;;;9.31;100.00
55217;BME280;41086;46.736;15.666;2023-04-01T07:25:30;97277.03;;;9.28;100.00
55217;BME280;41086;46.736;15.666;2023-04-01T07:28:16;97281.88;;;9.44;100.00
55217;BME280;41086;46.736;15.666;2023-04-01T07:31:09;97279.81;;;9.69;100.00
55217;BME280;41086;46.736;15.666;2023-04-01T07:33:50;97280.41;;;9.93;100.00
55217;BME280;41086;46.736;15.666;2023-04-01T07:36:31;97268.66;;;10.07;100.00
55217;BME280;41086;46.736;15.666;2023-04-01T07:39:17;97280.81;;;10.19;100.00
55217;BME280;41086;46.736;15.666;2023-04-01T07:47:57;97270.41;;;9.97;100.00
55217;BME280;41086;46.736;15.666;2023-04-01T07:50:37;97272.84;;;10.10;100.00
55217;BME280;41086;46.736;15.666;2023-04-01T08:01:06;97287.53;;;10.95;100.00
55217;BME280;41086;46.736;15.666;2023-04-01T08:07:15;97298.13;;;11.04;100.00
55217;BME280;41086;46.736;15.666;2023-04-01T08:10:23;97279.91;;;11.40;100.00
55217;BME280;41086;46.736;15.666;2023-04-01T08:13:34;97300.97;;;11.61;100.00
55217;BME280;41086;46.736;15.666;2023-04-01T08:16:47;97296.38;;;11.44;100.00
55217;BME280;41086;46.736;15.666;2023-04-01T08:19:46;97298.44;;;11.50;100.00
55217;BME280;41086;46.736;15.666;2023-04-01T08:22:41;97292.56;;;11.85;100.00
55217;BME280;41086;46.736;15.666;2023-04-01T08:25:29;97295.78;;;11.98;100.00
55217;BME280;41086;46.736;15.666;2023-04-01T08:28:13;97304.47;;;11.91;100.00
55217;BME280;41086;46.736;15.666;2023-04-01T08:30:46;97303.91;;;11.87;100.00
55217;BME280;41086;46.736;15.666;2023-04-01T08:33:25;97298.84;;;11.84;100.00
55217;BME280;41086;46.736;15.666;2023-04-01T08:36:10;97303.56;;;12.19;100.00
55217;BME280;41086;46.736;15.666;2023-04-01T08:38:48;97304.13;;;12.23;100.00
55217;BME280;41086;46.736;15.666;2023-04-01T08:41:32;97305.34;;;12.66;100.00
55217;BME280;41086;46.736;15.666;2023-04-01T08:47:46;97309.38;;;13.43;100.00
55217;BME280;41086;46.736;15.666;2023-04-01T08:50:36;97313.31;;;13.49;100.00
55217;BME280;41086;46.736;15.666;2023-04-01T08:59:16;97318.63;;;14.11;100.00
55217;BME280;41086;46.736;15.666;2023-04-01T09:16:13;97318.72;;;15.30;93.39
55217;BME280;41086;46.736;15.666;2023-04-01T09:24:33;97325.50;;;15.83;82.86
55217;BME280;41086;46.736;15.666;2023-04-01T09:27:18;97325.00;;;16.21;84.29
55217;BME280;41086;46.736;15.666;2023-04-01T09:39:34;97314.00;;;18.19;54.51
55217;BME280;41086;46.736;15.666;2023-04-01T09:42:42;97313.41;;;17.40;60.76
55217;BME280;41086;46.736;15.666;2023-04-01T09:54:26;97310.28;;;16.33;58.17
55217;BME280;41086;46.736;15.666;2023-04-01T10:15:41;97290.38;;;15.29;82.78
55217;BME280;41086;46.736;15.666;2023-04-01T10:24:21;97306.56;;;15.52;59.86
55217;BME280;41086;46.736;15.666;2023-04-01T11:18:02;97304.59;;;14.95;57.69
55217;BME280;41086;46.736;15.666;2023-04-01T11:22:46;97291.69;;;15.33;53.29
55217;BME280;41086;46.736;15.666;2023-04-01T11:33:38;97285.06;;;14.87;48.68
55217;BME280;41086;46.736;15.666;2023-04-01T11:48:19;97292.22;;;14.78;52.30
55217;BME280;41086;46.736;15.666;2023-04-01T11:56:21;97290.69;;;14.75;54.59
55217;BME280;41086;46.736;15.666;2023-04-01T12:01:45;97292.09;;;14.88;48.90
55217;BME280;41086;46.736;15.666;2023-04-01T12:07:18;97293.56;;;15.49;64.23
55217;BME280;41086;46.736;15.666;2023-04-01T12:18:32;97293.22;;;15.44;48.46
55217;BME280;41086;46.736;15.666;2023-04-01T12:21:29;97292.78;;;15.73;55.08
55217;BME280;41086;46.736;15.666;2023-04-01T12:29:54;97286.59;;;15.97;46.31
55217;BME280;41086;46.736;15.666;2023-04-01T12:37:46;97275.44;;;15.77;46.48
55217;BME280;41086;46.736;15.666;2023-04-01T12:43:13;97270.19;;;16.16;48.18
55217;BME280;41086;46.736;15.666;2023-04-01T12:45:54;97281.56;;;16.18;45.92
55217;BME280;41086;46.736;15.666;2023-04-01T12:57:14;97262.56;;;15.89;51.00
55217;BME280;41086;46.736;15.666;2023-04-01T13:03:17;97257.53;;;16.10;45.73
55217;BME280;41086;46.736;15.666;2023-04-01T13:06:27;97248.47;;;16.20;49.27
55217;BME280;41086;46.736;15.666;2023-04-01T13:14:36;97245.13;;;16.81;44.55
55217;BME280;41086;46.736;15.666;2023-04-01T13:28:21;97252.66;;;17.40;45.27
55217;BME280;41086;46.736;15.666;2023-04-01T13:31:14;97248.97;;;16.79;41.58
55217;BME280;41086;46.736;15.666;2023-04-01T13:34:21;97254.50;;;16.69;45.12
55217;BME280;41086;46.736;15.666;2023-04-01T13:43:22;97249.41;;;16.91;39.97
55217;BME280;41086;46.736;15.666;2023-04-01T14:00:03;97237.25;;;16.32;44.31
55217;BME280;41086;46.736;15.666;2023-04-01T14:02:51;97245.19;;;16.57;41.43
55217;BME280;41086;46.736;15.666;2023-04-01T14:11:42;97221.28;;;16.55;43.37
55217;BME280;41086;46.736;15.666;2023-04-01T14:17:16;97239.28;;;17.09;37.61
55217;BME280;41086;46.736;15.666;2023-04-01T14:28:56;97231.50;;;16.99;38.79
55217;BME280;41086;46.736;15.666;2023-04-01T14:31:34;97222.94;;;16.65;37.83
55217;BME280;41086;46.736;15.666;2023-04-01T14:48:23;97230.34;;;17.86;36.80
55217;BME280;41086;46.736;15.666;2023-04-01T14:50:54;97228.41;;;17.80;38.61
55217;BME280;41086;46.736;15.666;2023-04-01T14:53:26;97222.94;;;18.41;34.02
55217;BME280;41086;46.736;15.666;2023-04-01T14:55:59;97215.94;;;19.06;35.12
55217;BME280;41086;46.736;15.666;2023-04-01T14:58:47;97217.66;;;19.13;36.90
55217;BME280;41086;46.736;15.666;2023-04-01T15:01:37;97225.59;;;18.55;34.59
55217;BME280;41086;46.736;15.666;2023-04-01T15:15:01;97214.50;;;18.88;33.56
55217;BME280;41086;46.736;15.666;2023-04-01T15:18:07;97210.88;;;18.96;32.37
55217;BME280;41086;46.736;15.666;2023-04-01T15:38:19;97214.22;;;19.19;33.52
55217;BME280;41086;46.736;15.666;2023-04-01T15:40:50;97217.28;;;18.50;34.55
55217;BME280;41086;46.736;15.666;2023-04-01T15:51:47;97217.78;;;19.26;31.29
55217;BME280;41086;46.736;15.666;2023-04-01T15:57:13;97215.72;;;20.21;31.61
55217;BME280;41086;46.736;15.666;2023-04-01T16:00:18;97215.50;;;20.86;32.71
55217;BME280;41086;46.736;15.666;2023-04-01T16:03:14;97219.50;;;21.10;30.24
55217;BME280;41086;46.736;15.666;2023-04-01T16:14:35;97217.72;;;22.56;26.51
55217;BME280;41086;46.736;15.666;2023-04-01T16:22:48;97207.81;;;24.22;27.27
55217;BME280;41086;46.736;15.666;2023-04-01T16:25:36;97219.97;;;24.93;25.91
55217;BME280;41086;46.736;15.666;2023-04-01T16:30:58;97220.16;;;25.59;24.69
55217;BME280;41086;46.736;15.666;2023-04-01T16:36:27;97215.28;;;25.91;24.30
55217;BME280;41086;46.736;15.666;2023-04-01T16:39:22;97210.38;;;25.58;24.13
55217;BME280;41086;46.736;15.666;2023-04-01T16:42:30;97209.72;;;25.14;23.55
55217;BME280;41086;46.736;15.666;2023-04-01T16:45:15;97207.09;;;24.08;25.78
55217;BME280;41086;46.736;15.666;2023-04-01T16:47:54;97213.78;;;22.59;27.63
55217;BME280;41086;46.736;15.666;2023-04-01T16:50:30;97212.53;;;21.35;28.58
55217;BME280;41086;46.736;15.666;2023-04-01T16:53:34;97211.81;;;20.24;30.12
55217;BME280;41086;46.736;15.666;2023-04-01T16:58:57;97221.16;;;18.77;33.00
55217;BME280;41086;46.736;15.666;2023-04-01T17:01:44;97218.31;;;18.20;34.08
55217;BME280;41086;46.736;15.666;2023-04-01T17:04:34;97223.03;;;17.80;34.35
55217;BME280;41086;46.736;15.666;2023-04-01T17:07:37;97229.59;;;18.30;33.99
55217;BME280;41086;46.736;15.666;2023-04-01T17:16:02;97236.38;;;17.65;37.23
55217;BME280;41086;46.736;15.666;2023-04-01T17:18:43;97242.25;;;17.14;37.11
55217;BME280;41086;46.736;15.666;2023-04-01T17:28:03;97255.84;;;16.01;39.59
55217;BME280;41086;46.736;15.666;2023-04-01T17:30:39;97260.22;;;15.78;39.91
55217;BME280;41086;46.736;15.666;2023-04-01T17:33:35;97260.34;;;15.51;41.05
55217;BME280;41086;46.736;15.666;2023-04-01T17:42:22;97282.22;;;14.80;45.72
55217;BME280;41086;46.736;15.666;2023-04-01T17:47:31;97286.06;;;14.51;47.88
55217;BME280;41086;46.736;15.666;2023-04-01T17:56:11;97291.41;;;13.99;50.15
55217;BME280;41086;46.736;15.666;2023-04-01T17:59:09;97302.63;;;13.85;51.67
55217;BME280;41086;46.736;15.666;2023-04-01T18:10:20;97311.47;;;13.49;53.74
55217;BME280;41086;46.736;15.666;2023-04-01T18:18:26;97310.09;;;13.18;59.81
55217;BME280;41086;46.736;15.666;2023-04-01T18:21:31;97313.59;;;13.00;64.01
55217;BME280;41086;46.736;15.666;2023-04-01T18:24:17;97311.88;;;12.81;61.77
55217;BME280;41086;46.736;15.666;2023-04-01T18:26:50;97315.00;;;12.67;60.61
55217;BME280;41086;46.736;15.666;2023-04-01T18:29:46;97316.31;;;12.53;62.18
55217;BME280;41086;46.736;15.666;2023-04-01T18:32:36;97305.56;;;12.45;62.99
55217;BME280;41086;46.736;15.666;2023-04-01T18:40:28;97328.63;;;11.97;82.80
55217;BME280;41086;46.736;15.666;2023-04-01T18:43:08;97337.25;;;11.31;85.86
55217;BME280;41086;46.736;15.666;2023-04-01T18:46:12;97350.59;;;10.91;89.38
55217;BME280;41086;46.736;15.666;2023-04-01T18:51:44;97376.16;;;10.40;100.00
55217;BME280;41086;46.736;15.666;2023-04-01T18:54:27;97392.13;;;10.29;100.00
55217;BME280;41086;46.736;15.666;2023-04-01T18:57:03;97392.78;;;10.73;91.83
55217;BME280;41086;46.736;15.666;2023-04-01T18:59:40;97393.78;;;11.22;89.45
55217;BME280;41086;46.736;15.666;2023-04-01T19:02:36;97404.69;;;11.39;87.63
55217;BME280;41086;46.736;15.666;2023-04-01T19:05:19;97411.16;;;11.56;81.97
55217;BME280;41086;46.736;15.666;2023-04-01T19:07:52;97412.16;;;11.74;77.45
55217;BME280;41086;46.736;15.666;2023-04-01T19:16:09;97418.34;;;12.04;74.04
55217;BME280;41086;46.736;15.666;2023-04-01T19:19:08;97422.69;;;12.14;72.90
55217;BME280;41086;46.736;15.666;2023-04-01T19:27:03;97426.25;;;12.52;83.39
55217;BME280;41086;46.736;15.666;2023-04-01T19:29:54;97436.78;;;12.15;100.00
55217;BME280;41086;46.736;15.666;2023-04-01T19:38:12;97461.72;;;10.83;100.00
55217;BME280;41086;46.736;15.666;2023-04-01T19:40:53;97470.41;;;10.64;100.00
55217;BME280;41086;46.736;15.666;2023-04-01T19:43:39;97481.91;;;10.53;100.00
55217;BME280;41086;46.736;15.666;2023-04-01T19:50:00;97483.69;;;10.53;100.00
55217;BME280;41086;46.736;15.666;2023-04-01T19:54:49;97475.19;;;10.49;100.00
55217;BME280;41086;46.736;15.666;2023-04-01T20:08:17;97506.69;;;10.31;100.00
55217;BME280;41086;46.736;15.666;2023-04-01T20:11:12;97499.84;;;10.17;100.00
55217;BME280;41086;46.736;15.666;2023-04-01T20:16:08;97508.78;;;10.16;100.00
55217;BME280;41086;46.736;15.666;2023-04-01T20:18:48;97514.31;;;10.13;100.00
55217;BME280;41086;46.736;15.666;2023-04-01T20:23:55;97518.41;;;9.63;100.00
55217;BME280;41086;46.736;15.666;2023-04-01T20:26:27;97514.00;;;9.41;100.00
55217;BME280;41086;46.736;15.666;2023-04-01T20:38:04;97530.47;;;8.99;100.00
55217;BME280;41086;46.736;15.666;2023-04-01T20:40:47;97543.31;;;9.04;100.00
55217;BME280;41086;46.736;15.666;2023-04-01T20:46:23;97554.00;;;9.25;100.00
55217;BME280;41086;46.736;15.666;2023-04-01T20:49:21;97544.66;;;9.21;100.00
55217;BME280;41086;46.736;15.666;2023-04-01T20:57:22;97549.22;;;9.41;100.00
55217;BME280;41086;46.736;15.666;2023-04-01T21:24:53;97511.56;;;8.93;100.00
55217;BME280;41086;46.736;15.666;2023-04-01T21:27:30;97516.16;;;9.02;100.00
55217;BME280;41086;46.736;15.666;2023-04-01T21:41:29;97557.97;;;9.42;100.00
55217;BME280;41086;46.736;15.666;2023-04-01T22:12:15;97555.16;;;8.40;100.00
55217;BME280;41086;46.736;15.666;2023-04-01T22:14:51;97543.09;;;8.25;100.00
55217;BME280;41086;46.736;15.666;2023-04-01T22:17:38;97547.34;;;8.15;100.00
55217;BME280;41086;46.736;15.666;2023-04-01T22:20:45;97531.47;;;8.04;100.00
55217;BME280;41086;46.736;15.666;2023-04-01T22:28:57;97549.19;;;8.02;100.00
55217;BME280;41086;46.736;15.666;2023-04-01T22:34:16;97553.47;;;7.91;100.00
55217;BME280;41086;46.736;15.666;2023-04-01T22:42:43;97547.88;;;7.83;100.00
55217;BME280;41086;46.736;15.666;2023-04-01T22:48:00;97558.34;;;7.85;100.00
55217;BME280;41086;46.736;15.666;2023-04-01T22:50:40;97550.44;;;7.85;100.00
55217;BME280;41086;46.736;15.666;2023-04-01T22:56:06;97549.69;;;7.83;100.00
55217;BME280;41086;46.736;15.666;2023-04-01T22:58:37;97555.41;;;7.76;100.00
55217;BME280;41086;46.736;15.666;2023-04-01T23:01:13;97543.63;;;7.69;100.00
55217;BME280;41086;46.736;15.666;2023-04-01T23:03:43;97549.50;;;7.73;100.00
55217;BME280;41086;46.736;15.666;2023-04-01T23:06:18;97556.34;;;7.75;100.00
55217;BME280;41086;46.736;15.666;2023-04-01T23:11:37;97557.16;;;7.89;100.00
55217;BME280;41086;46.736;15.666;2023-04-01T23:28:28;97550.94;;;7.90;100.00
55217;BME280;41086;46.736;15.666;2023-04-01T23:30:59;97558.50;;;7.94;100.00
55217;BME280;41086;46.736;15.666;2023-04-01T23:33:30;97564.63;;;7.95;100.00
55217;BME280;41086;46.736;15.666;2023-04-01T23:35:58;97565.59;;;7.94;100.00
55217;BME280;41086;46.736;15.666;2023-04-01T23:38:35;97559.69;;;7.90;100.00
55217;BME280;41086;46.736;15.666;2023-04-01T23:41:04;97555.59;;;7.86;100.00
55217;BME280;41086;46.736;15.666;2023-04-01T23:43:36;97562.75;;;7.84;100.00
55217;BME280;41086;46.736;15.666;2023-04-01T23:46:06;97562.03;;;7.82;100.00